Airfield :
LOGIN :

Register | Disclaimer

   EN    FR    IT 

 










Legend :    VFR   Marginal VFR   IFR   Intensive IFR   Very Intensive IFR
Visi :
Ceiling :
>= 8 km
>= 3000ft
5 to 8 km
1000 to 3000 ft
1500m to 5 km
500 to 1000 ft
800 to 1500m
200 to 500 ft
< 800m
< 200 ft
Symbols :   Thunderstorms  Fog  Heavy snow  Heavy precipitations  Wind > 20 kt
SIGMETs :     Misc.  Thunderstorms  Icing  Turbulence  Mountain Waves  Volcanic Ashes







- Airport Elevation : 1115 ft
- IATA code : GRZ


LOWG - Graz

CURRENT METAR :
  • 200150Z AUTO 15003KT 100V250 4200 1300S R17/P1500U R35/0700D BR SCT001 M05/M05 Q1016

EXPIRED METARs :
  • 200120Z AUTO VRB02KT 0300 R17/0250N R35/0500D FZFG BKN001 M05/M05 Q1016
  • 200050Z AUTO VRB02KT 0500 R17/0600D R35/1500D FZFG BKN001 M03/M04 Q1016
  • 200020Z AUTO VRB02KT 0450 R17/0325N R35/P1500U FZBCFG BKN000 M05/M05 Q1016
  • 192350Z AUTO 16004KT 110V230 0400 R17/0400D R35/P1500U FZBCFG FEW000 M03/M04 Q1016
  • 192320Z AUTO VRB02KT 0750 R17/0900U R35/0500U FZBCFG SCT000 M03/M03 Q1016

TAF AMD TAF LOWG
Valid from the 20 at 01:00 until the 21 at 00:00 UTC


200141Z 2001/2024 VRB02KT 8000 FEW040 SCT090 TX04/2012Z TNM03/2005Z
TEMPO 2001/2006 0300 FZBCFG BKN001
TEMPO 2007/2012 33012G22KT
No reported NOTAMs for that airfield.



MET'MAP, your aeronautical weather chart ! - Copyright ORBIFLY December 2007 - Disclaimer

ORBIFLY MET'MAP TEAM :

Programming & Development : Alexandra Zaïnal
Concept & Development : Baudouin d'Aumeries
Co-Development & Prog : Marc-Olivier Méhu
Technical & hardware support : Manuel Goepfert

Contact : metmap@orbifly.com




SOURCES & CREDITS :

   NOAA